Time;durP1;ratioP1;P1;durP2;ratioP2;P2;SDS_P1;SDS_P2;PMS_P1;PMS_P2;Temp;Humidity;BMP_temperature;BMP_pressure;BME280_temperature;BME280_humidity;BME280_pressure;Samples;Min_cycle;Max_cycle;Signal;HPM_P1;HPM_P2
2022/03/17 00:01:39;;;;;;;;;;;;;;;5.91;100.00;99635.03;5074123;28;19935;-76
2022/03/17 00:04:08;;;;;;;;;;;;;;;5.92;100.00;99626.34;5074313;28;19925;-76
2022/03/17 00:06:36;;;;;;;;;;;;;;;5.71;100.00;99639.91;5075527;28;19931;-75
2022/03/17 00:09:04;;;;;;;;;;;;;;;5.67;100.00;99635.47;5074138;28;19999;-76
2022/03/17 00:11:35;;;;;;;;;;;;;;;5.76;100.00;99633.22;5075434;28;19931;-76
2022/03/17 00:14:03;;;;;;;;;;;;;;;5.90;100.00;99644.53;5074165;28;19925;-76
2022/03/17 00:16:32;;;;;;;;;;;;;;;5.94;100.00;99648.16;5057657;28;20371;-76
2022/03/17 00:19:01;;;;;;;;;;;;;;;5.91;100.00;99651.69;5075150;28;19935;-76
2022/03/17 00:21:28;;;;;;;;;;;;;;;5.73;100.00;99656.16;5073773;28;19929;-76
2022/03/17 00:23:55;;;;;;;;;;;;;;;5.82;100.00;99649.19;5074030;28;19924;-76
2022/03/17 00:26:22;;;;;;;;;;;;;;;5.62;100.00;99644.16;5075172;28;19925;-76
2022/03/17 00:28:50;;;;;;;;;;;;;;;5.84;100.00;99657.94;5075160;28;20516;-76
2022/03/17 00:31:18;;;;;;;;;;;;;;;5.70;100.00;99652.16;5090239;28;20366;-76
2022/03/17 00:33:45;;;;;;;;;;;;;;;5.63;100.00;99665.97;5095085;28;19924;-76
2022/03/17 00:36:12;;;;;;;;;;;;;;;5.57;100.00;99676.56;5095030;28;19931;-76
2022/03/17 00:38:39;;;;;;;;;;;;;;;5.62;100.00;99674.66;5093962;28;19924;-75
2022/03/17 00:41:06;;;;;;;;;;;;;;;5.99;100.00;99681.09;5093903;28;20049;-76
2022/03/17 00:43:34;;;;;;;;;;;;;;;5.74;100.00;99683.50;5095188;28;19924;-76
2022/03/17 00:46:02;;;;;;;;;;;;;;;5.65;100.00;99693.31;5076905;28;19924;-76
2022/03/17 00:48:30;;;;;;;;;;;;;;;5.89;100.00;99690.91;5094751;28;19934;-76
2022/03/17 00:50:57;;;;;;;;;;;;;;;5.69;100.00;99694.94;5094863;28;19931;-76
2022/03/17 00:53:24;;;;;;;;;;;;;;;5.65;100.00;99685.00;5094930;28;19935;-76
2022/03/17 00:55:51;;;;;;;;;;;;;;;5.63;100.00;99692.88;5093158;28;19924;-76
2022/03/17 00:58:19;;;;;;;;;;;;;;;5.70;100.00;99695.72;5076664;28;19930;-76
2022/03/17 01:00:46;;;;;;;;;;;;;;;5.72;100.00;99704.47;5094456;28;20044;-75
2022/03/17 01:03:13;;;;;;;;;;;;;;;5.92;100.00;99705.97;5094787;28;20371;-76
2022/03/17 01:05:41;;;;;;;;;;;;;;;5.62;100.00;99705.16;5094567;28;20027;-75
2022/03/17 01:08:29;;;;;;;;;;;;;;;5.78;100.00;99719.63;5094743;28;19928;-75
2022/03/17 01:11:01;;;;;;;;;;;;;;;5.46;100.00;99703.34;5094623;28;19947;-76
2022/03/17 01:13:31;;;;;;;;;;;;;;;5.77;100.00;99709.72;5093356;28;19928;-75
2022/03/17 01:15:58;;;;;;;;;;;;;;;5.81;100.00;99713.31;5093921;28;20287;-75
2022/03/17 01:18:25;;;;;;;;;;;;;;;5.85;100.00;99706.66;5093257;28;20406;-76
2022/03/17 01:20:54;;;;;;;;;;;;;;;5.63;100.00;99715.06;5094444;28;20011;-76
2022/03/17 01:23:21;;;;;;;;;;;;;;;5.63;100.00;99719.41;5094340;28;19930;-75
2022/03/17 01:25:49;;;;;;;;;;;;;;;5.56;100.00;99724.88;5094375;28;19924;-76
2022/03/17 01:28:16;;;;;;;;;;;;;;;5.48;100.00;99728.69;5094222;28;20017;-76
2022/03/17 01:30:46;;;;;;;;;;;;;;;5.26;100.00;99721.25;5082678;28;20017;-76
2022/03/17 01:33:13;;;;;;;;;;;;;;;5.31;100.00;99728.44;5073794;28;20019;-76
2022/03/17 01:35:59;;;;;;;;;;;;;;;5.16;100.00;99732.97;5074050;28;19947;-76
2022/03/17 01:38:48;;;;;;;;;;;;;;;5.20;100.00;99714.44;5073828;28;19924;-76
2022/03/17 01:41:31;;;;;;;;;;;;;;;5.09;100.00;99727.31;5073640;28;19932;-76
2022/03/17 01:44:01;;;;;;;;;;;;;;;5.22;100.00;99737.03;5072466;28;20359;-76
2022/03/17 01:46:29;;;;;;;;;;;;;;;5.24;100.00;99737.44;5073581;28;20031;-76
2022/03/17 01:48:58;;;;;;;;;;;;;;;5.27;100.00;99724.84;5073724;28;20000;-76
2022/03/17 01:51:27;;;;;;;;;;;;;;;5.33;100.00;99742.75;5072232;28;19924;-76
2022/03/17 01:53:55;;;;;;;;;;;;;;;5.29;100.00;99737.13;5072948;28;19924;-76
2022/03/17 01:56:23;;;;;;;;;;;;;;;5.40;100.00;99754.72;5073538;28;19924;-76
2022/03/17 01:59:12;;;;;;;;;;;;;;;5.16;100.00;99760.69;5072024;28;19924;-76
2022/03/17 02:01:39;;;;;;;;;;;;;;;5.19;100.00;99759.94;5072438;28;19925;-75
2022/03/17 02:04:11;;;;;;;;;;;;;;;5.37;100.00;99776.84;5073404;28;20016;-76
2022/03/17 02:06:42;;;;;;;;;;;;;;;5.35;100.00;99763.34;5072492;28;19959;-76
2022/03/17 02:09:13;;;;;;;;;;;;;;;5.35;100.00;99771.66;5077042;28;19990;-76
2022/03/17 02:14:34;;;;;;;;;;;;;;;5.32;100.00;99757.75;5077384;28;20106;-76
2022/03/17 02:17:01;;;;;;;;;;;;;;;5.51;100.00;99763.22;5077627;28;19950;-76
2022/03/17 02:19:28;;;;;;;;;;;;;;;5.13;100.00;99771.69;5077286;28;20019;-76
2022/03/17 02:21:57;;;;;;;;;;;;;;;5.36;100.00;99770.50;5077537;28;19955;-76
2022/03/17 02:27:23;;;;;;;;;;;;;;;5.63;100.00;99768.53;5034519;28;19933;-76
2022/03/17 02:29:55;;;;;;;;;;;;;;;5.31;100.00;99761.69;5034673;28;20024;-76
2022/03/17 02:32:22;;;;;;;;;;;;;;;5.55;100.00;99780.69;5034687;28;20008;-76
2022/03/17 02:34:49;;;;;;;;;;;;;;;5.33;100.00;99781.53;5034915;28;19925;-76
2022/03/17 02:37:18;;;;;;;;;;;;;;;5.37;100.00;99777.66;5034383;28;19925;-76
2022/03/17 02:39:45;;;;;;;;;;;;;;;5.26;100.00;99778.63;5034695;28;20355;-76
2022/03/17 02:42:12;;;;;;;;;;;;;;;5.11;100.00;99774.84;5018068;28;19925;-76
2022/03/17 02:44:58;;;;;;;;;;;;;;;5.04;100.00;99783.00;5033063;28;20393;-76
2022/03/17 02:47:26;;;;;;;;;;;;;;;5.02;100.00;99777.06;5034580;28;20326;-76
2022/03/17 02:49:55;;;;;;;;;;;;;;;5.01;100.00;99783.75;5017841;28;19925;-76
2022/03/17 02:52:25;;;;;;;;;;;;;;;5.18;100.00;99788.78;5034493;28;19925;-76
2022/03/17 02:54:53;;;;;;;;;;;;;;;4.95;100.00;99788.00;5018779;28;19925;-76
2022/03/17 02:57:20;;;;;;;;;;;;;;;5.15;100.00;99786.75;5034017;28;19935;-76
2022/03/17 02:59:54;;;;;;;;;;;;;;;5.40;100.00;99793.53;5034406;28;20055;-76
2022/03/17 03:02:22;;;;;;;;;;;;;;;5.33;100.00;99782.31;5001528;28;19972;-76
2022/03/17 03:04:51;;;;;;;;;;;;;;;5.44;100.00;99788.84;5052172;28;19940;-76
2022/03/17 03:07:18;;;;;;;;;;;;;;;5.50;100.00;99787.34;5055241;28;19974;-76
2022/03/17 03:09:45;;;;;;;;;;;;;;;5.72;100.00;99787.66;5056266;28;19925;-76
2022/03/17 03:12:12;;;;;;;;;;;;;;;5.66;100.00;99778.06;5056322;28;19925;-76
2022/03/17 03:14:40;;;;;;;;;;;;;;;5.69;100.00;99766.22;5054996;28;19925;-76
2022/03/17 03:17:07;;;;;;;;;;;;;;;5.55;100.00;99778.72;5056086;28;19925;-76
2022/03/17 03:19:38;;;;;;;;;;;;;;;5.81;100.00;99763.22;5071072;28;20338;-76
2022/03/17 03:22:17;;;;;;;;;;;;;;;5.82;100.00;99781.50;5056417;28;19952;-76
2022/03/17 03:25:09;;;;;;;;;;;;;;;5.72;100.00;99782.94;5041435;28;20442;-76
2022/03/17 03:28:06;;;;;;;;;;;;;;;5.69;100.00;99782.88;5055942;28;19925;-76
2022/03/17 03:30:54;;;;;;;;;;;;;;;5.87;100.00;99800.59;5079447;28;20383;-76
2022/03/17 03:33:21;;;;;;;;;;;;;;;5.71;100.00;99799.94;5095006;28;20296;-76
2022/03/17 03:39:03;;;;;;;;;;;;;;;5.74;100.00;99818.59;5096094;28;20299;-76
2022/03/17 03:41:56;;;;;;;;;;;;;;;5.94;100.00;99818.13;5095733;28;20082;-76
2022/03/17 03:44:23;;;;;;;;;;;;;;;5.88;100.00;99816.06;5095824;28;19924;-76
2022/03/17 03:47:11;;;;;;;;;;;;;;;6.10;100.00;99821.56;5081576;28;19928;-76
2022/03/17 03:49:43;;;;;;;;;;;;;;;6.20;100.00;99823.66;5095557;28;19951;-76
2022/03/17 03:52:12;;;;;;;;;;;;;;;6.13;100.00;99828.31;5094454;28;19924;-76
2022/03/17 03:54:40;;;;;;;;;;;;;;;6.23;100.00;99830.41;5093327;28;19928;-76
2022/03/17 03:57:09;;;;;;;;;;;;;;;6.29;100.00;99831.69;5094603;28;20068;-76
2022/03/17 03:59:57;;;;;;;;;;;;;;;6.11;100.00;99834.25;5095089;28;19924;-75
2022/03/17 04:02:29;;;;;;;;;;;;;;;6.18;100.00;99828.00;5095899;28;19928;-75
2022/03/17 04:05:06;;;;;;;;;;;;;;;6.15;100.00;99828.75;5095741;28;19924;-75
2022/03/17 04:07:33;;;;;;;;;;;;;;;6.05;100.00;99844.06;5095159;28;19931;-75
2022/03/17 04:10:00;;;;;;;;;;;;;;;6.17;100.00;99843.03;5095205;28;20312;-75
2022/03/17 04:12:47;;;;;;;;;;;;;;;6.18;100.00;99839.09;5094413;28;20341;-75
2022/03/17 04:15:14;;;;;;;;;;;;;;;6.07;100.00;99838.94;5093966;28;19924;-75
2022/03/17 04:17:41;;;;;;;;;;;;;;;6.07;100.00;99843.69;5094005;28;19927;-75
2022/03/17 04:20:10;;;;;;;;;;;;;;;5.99;100.00;99850.28;5094133;28;20311;-75
2022/03/17 04:22:37;;;;;;;;;;;;;;;6.05;100.00;99854.34;5095243;28;19924;-75
2022/03/17 04:25:05;;;;;;;;;;;;;;;6.14;100.00;99854.88;5095147;28;19924;-75
2022/03/17 04:27:33;;;;;;;;;;;;;;;6.09;100.00;99858.78;5127783;27;20322;-75
2022/03/17 04:30:00;;;;;;;;;;;;;;;5.89;100.00;99867.59;5090424;28;19949;-75
2022/03/17 04:32:47;;;;;;;;;;;;;;;5.69;100.00;99868.81;5072416;28;19928;-75
2022/03/17 04:35:14;;;;;;;;;;;;;;;5.43;100.00;99870.41;5074769;28;19924;-75
2022/03/17 04:38:02;;;;;;;;;;;;;;;5.47;100.00;99882.34;5073445;28;19929;-75
2022/03/17 04:40:29;;;;;;;;;;;;;;;5.55;100.00;99884.06;5074452;28;19998;-75
2022/03/17 04:42:56;;;;;;;;;;;;;;;5.67;100.00;99885.03;5074689;28;20036;-75
2022/03/17 04:45:23;;;;;;;;;;;;;;;5.79;100.00;99890.38;5074526;28;19931;-75
2022/03/17 04:47:50;;;;;;;;;;;;;;;5.74;100.00;99897.03;5074668;28;20015;-75
2022/03/17 04:50:19;;;;;;;;;;;;;;;5.82;100.00;99897.97;5074802;28;20284;-75
2022/03/17 04:55:31;;;;;;;;;;;;;;;5.75;100.00;99903.38;5073292;28;19929;-75
2022/03/17 04:57:59;;;;;;;;;;;;;;;5.82;100.00;99909.06;5056413;28;20019;-75
2022/03/17 05:00:26;;;;;;;;;;;;;;;5.85;100.00;99905.56;5074481;28;19925;-75
2022/03/17 05:03:05;;;;;;;;;;;;;;;5.96;100.00;99914.84;5072617;28;19924;-75
2022/03/17 05:05:51;;;;;;;;;;;;;;;5.99;100.00;99909.38;5059109;28;20457;-75
2022/03/17 05:08:59;;;;;;;;;;;;;;;5.92;100.00;99922.31;5073948;28;19924;-75
2022/03/17 05:11:26;;;;;;;;;;;;;;;5.93;100.00;99921.13;5074255;28;20425;-75
2022/03/17 05:13:53;;;;;;;;;;;;;;;5.83;100.00;99924.56;5074257;28;19936;-75
2022/03/17 05:16:21;;;;;;;;;;;;;;;5.84;100.00;99923.38;5074011;28;19967;-75
2022/03/17 05:18:51;;;;;;;;;;;;;;;5.96;100.00;99920.41;5074158;28;20264;-75
2022/03/17 05:21:19;;;;;;;;;;;;;;;5.96;100.00;99921.22;5072955;28;20019;-75
2022/03/17 05:23:46;;;;;;;;;;;;;;;5.92;100.00;99925.91;5072524;28;20346;-75
2022/03/17 05:26:15;;;;;;;;;;;;;;;5.80;100.00;99926.03;5072700;28;20333;-75
2022/03/17 05:28:42;;;;;;;;;;;;;;;5.55;100.00;99928.41;5072794;28;19928;-75
2022/03/17 05:31:11;;;;;;;;;;;;;;;5.63;100.00;99941.22;5086861;28;19924;-75
2022/03/17 05:33:38;;;;;;;;;;;;;;;5.55;100.00;99930.38;5094125;28;19930;-75
2022/03/17 05:36:06;;;;;;;;;;;;;;;5.63;100.00;99939.63;5093947;28;19928;-75
2022/03/17 05:38:33;;;;;;;;;;;;;;;5.34;100.00;99946.63;5092601;28;20387;-75
2022/03/17 05:41:00;;;;;;;;;;;;;;;5.59;100.00;99945.91;5084335;28;19936;-75
2022/03/17 05:43:27;;;;;;;;;;;;;;;5.45;100.00;99948.41;5074472;28;19943;-75
2022/03/17 05:45:54;;;;;;;;;;;;;;;5.61;100.00;99951.09;5106042;28;19925;-75
2022/03/17 05:48:23;;;;;;;;;;;;;;;5.42;100.00;99946.38;5083420;28;20015;-75
2022/03/17 05:50:50;;;;;;;;;;;;;;;5.46;100.00;99963.91;5093668;28;20047;-75
2022/03/17 05:53:19;;;;;;;;;;;;;;;5.49;100.00;99959.59;5075522;28;20243;-75
2022/03/17 05:55:49;;;;;;;;;;;;;;;5.47;100.00;99971.03;5076587;28;19924;-75
2022/03/17 05:58:17;;;;;;;;;;;;;;;5.42;100.00;99968.56;5092595;28;19928;-75
2022/03/17 06:00:44;;;;;;;;;;;;;;;5.31;100.00;99975.06;5081363;28;19994;-75
2022/03/17 06:03:11;;;;;;;;;;;;;;;5.17;100.00;99985.88;5073624;28;19924;-75
2022/03/17 06:05:38;;;;;;;;;;;;;;;5.32;100.00;99983.03;5055335;28;19975;-75
2022/03/17 06:08:09;;;;;;;;;;;;;;;5.31;100.00;99984.22;5073693;28;20344;-75
2022/03/17 06:10:37;;;;;;;;;;;;;;;5.22;100.00;99978.09;5073509;28;19925;-75
2022/03/17 06:13:05;;;;;;;;;;;;;;;5.17;100.00;99992.22;5073742;28;19947;-75
2022/03/17 06:15:36;;;;;;;;;;;;;;;4.99;100.00;99982.75;5073668;28;19928;-75
2022/03/17 06:18:04;;;;;;;;;;;;;;;5.23;100.00;99988.00;5073341;28;19986;-75
2022/03/17 06:20:34;;;;;;;;;;;;;;;4.98;100.00;99985.91;5069608;28;19925;-75
2022/03/17 06:23:04;;;;;;;;;;;;;;;4.93;100.00;99989.75;5073572;28;20009;-75
2022/03/17 06:25:32;;;;;;;;;;;;;;;4.85;100.00;99990.75;5073478;28;19939;-75
2022/03/17 06:28:04;;;;;;;;;;;;;;;4.74;100.00;99997.25;5072477;28;19928;-75
2022/03/17 06:30:31;;;;;;;;;;;;;;;4.82;100.00;99998.97;5072083;28;20391;-75
2022/03/17 06:33:17;;;;;;;;;;;;;;;4.85;100.00;99999.06;5073739;28;20521;-74
2022/03/17 06:35:44;;;;;;;;;;;;;;;4.87;100.00;99996.75;5055174;28;19959;-75
2022/03/17 06:38:11;;;;;;;;;;;;;;;4.80;100.00;99995.78;5073226;28;20361;-75
2022/03/17 06:40:38;;;;;;;;;;;;;;;4.83;100.00;99990.31;5084267;28;19931;-75
2022/03/17 06:43:05;;;;;;;;;;;;;;;4.94;100.00;100002.44;5093467;28;20253;-75
2022/03/17 06:45:33;;;;;;;;;;;;;;;4.85;100.00;99996.31;5092347;28;19967;-75
2022/03/17 06:48:00;;;;;;;;;;;;;;;5.00;100.00;100000.97;5093367;28;19951;-75
2022/03/17 06:50:27;;;;;;;;;;;;;;;5.06;100.00;99998.69;5093074;28;19924;-75
2022/03/17 06:52:55;;;;;;;;;;;;;;;4.93;100.00;99989.75;5093234;28;19924;-75
2022/03/17 06:55:22;;;;;;;;;;;;;;;5.02;100.00;100003.38;5095373;28;19928;-75
2022/03/17 06:57:49;;;;;;;;;;;;;;;5.29;100.00;99996.81;5096968;28;19924;-75
2022/03/17 07:00:18;;;;;;;;;;;;;;;5.46;100.00;100005.47;5096917;28;19973;-75
2022/03/17 07:02:46;;;;;;;;;;;;;;;5.67;100.00;99998.72;5095662;28;19924;-75
2022/03/17 07:05:14;;;;;;;;;;;;;;;5.91;100.00;100010.28;5096793;28;19981;-75
2022/03/17 07:07:42;;;;;;;;;;;;;;;5.91;100.00;99996.41;5096914;28;19931;-75
2022/03/17 07:10:15;;;;;;;;;;;;;;;5.86;100.00;100001.47;5096684;28;19928;-75
2022/03/17 07:12:44;;;;;;;;;;;;;;;6.58;100.00;100003.03;5078966;28;19967;-75
2022/03/17 07:15:13;;;;;;;;;;;;;;;7.30;100.00;99996.06;5079123;28;20379;-75
2022/03/17 07:17:40;;;;;;;;;;;;;;;7.56;100.00;99992.41;5095254;28;19934;-75
2022/03/17 07:20:14;;;;;;;;;;;;;;;8.05;100.00;99992.88;5096616;28;19960;-75
2022/03/17 07:22:42;;;;;;;;;;;;;;;8.59;100.00;99990.13;5096227;28;19924;-75
2022/03/17 07:25:10;;;;;;;;;;;;;;;8.68;100.00;99994.16;5095155;28;20378;-75
2022/03/17 07:27:43;;;;;;;;;;;;;;;8.82;100.00;99971.97;5096410;28;19981;-75
2022/03/17 07:30:11;;;;;;;;;;;;;;;9.38;100.00;99978.97;5096437;28;20371;-75
2022/03/17 07:32:38;;;;;;;;;;;;;;;9.77;100.00;99975.06;5096168;28;19931;-76
2022/03/17 07:35:07;;;;;;;;;;;;;;;9.50;100.00;99979.41;5078331;28;19947;-75
2022/03/17 07:37:44;;;;;;;;;;;;;;;9.24;100.00;99976.16;5094645;28;19955;-75
2022/03/17 07:40:12;;;;;;;;;;;;;;;9.03;100.00;99974.84;5095783;28;19955;-76
2022/03/17 07:42:42;;;;;;;;;;;;;;;9.42;100.00;99979.78;5054497;28;19925;-76
2022/03/17 07:45:24;;;;;;;;;;;;;;;9.33;100.00;99974.56;5054444;28;19925;-75
2022/03/17 07:48:00;;;;;;;;;;;;;;;9.43;100.00;99975.78;5054407;28;19951;-75
2022/03/17 07:50:27;;;;;;;;;;;;;;;9.73;100.00;99974.28;5055726;28;19925;-75
2022/03/17 07:52:59;;;;;;;;;;;;;;;10.26;100.00;99977.94;5055466;28;19931;-75
2022/03/17 07:55:27;;;;;;;;;;;;;;;10.22;100.00;99970.75;5055638;28;19931;-75
2022/03/17 07:57:55;;;;;;;;;;;;;;;10.33;100.00;99974.38;5055549;28;20018;-75
2022/03/17 08:00:24;;;;;;;;;;;;;;;9.94;100.00;99976.28;5055295;28;19932;-75
2022/03/17 08:02:54;;;;;;;;;;;;;;;10.37;100.00;99978.75;5055491;28;20055;-75
2022/03/17 08:05:21;;;;;;;;;;;;;;;10.13;100.00;99975.94;5053523;28;19960;-75
2022/03/17 08:07:48;;;;;;;;;;;;;;;10.17;100.00;99979.53;5070636;28;19925;-75
2022/03/17 08:10:16;;;;;;;;;;;;;;;10.13;100.00;99990.69;5055259;28;19925;-75
2022/03/17 08:12:46;;;;;;;;;;;;;;;10.13;100.00;99987.13;5054064;28;19932;-75
2022/03/17 08:15:15;;;;;;;;;;;;;;;9.97;100.00;99997.84;5054929;28;19924;-75
2022/03/17 08:17:42;;;;;;;;;;;;;;;10.06;100.00;99995.44;5071688;28;20288;-75
2022/03/17 08:20:10;;;;;;;;;;;;;;;10.06;100.00;99990.66;5074853;28;20019;-75
2022/03/17 08:22:37;;;;;;;;;;;;;;;10.10;100.00;99991.50;5091925;28;19979;-75
2022/03/17 08:25:04;;;;;;;;;;;;;;;10.18;100.00;99989.50;5075213;28;19925;-75
2022/03/17 08:27:32;;;;;;;;;;;;;;;10.34;100.00;99985.13;5073845;28;19935;-75
2022/03/17 08:29:59;;;;;;;;;;;;;;;10.34;100.00;99989.91;5073503;28;20276;-75
2022/03/17 08:32:27;;;;;;;;;;;;;;;10.36;100.00;100004.28;5074497;28;19977;-77
2022/03/17 08:34:54;;;;;;;;;;;;;;;10.05;100.00;100011.41;5073169;28;19932;-76
2022/03/17 08:37:22;;;;;;;;;;;;;;;10.17;100.00;100007.47;5073548;28;19962;-76
2022/03/17 08:39:49;;;;;;;;;;;;;;;10.00;100.00;100009.00;5074693;28;19932;-76
2022/03/17 08:42:17;;;;;;;;;;;;;;;10.18;100.00;100006.25;5067384;28;19928;-75
2022/03/17 08:44:45;;;;;;;;;;;;;;;9.86;100.00;100003.41;5083769;28;19974;-75
2022/03/17 08:49:59;;;;;;;;;;;;;;;9.64;100.00;100012.13;5068644;28;20387;-75
2022/03/17 08:52:28;;;;;;;;;;;;;;;9.74;100.00;100016.94;5080730;28;19924;-75
2022/03/17 08:54:55;;;;;;;;;;;;;;;9.67;100.00;100025.28;5074940;28;20387;-75
2022/03/17 08:57:22;;;;;;;;;;;;;;;9.27;100.00;100026.34;5078073;28;19971;-75
2022/03/17 08:59:50;;;;;;;;;;;;;;;9.28;100.00;100027.16;5061631;28;20023;-75
2022/03/17 09:02:26;;;;;;;;;;;;;;;9.31;100.00;100021.59;5065924;28;20022;-75
2022/03/17 09:04:56;;;;;;;;;;;;;;;9.42;100.00;100004.91;5069279;28;19928;-75
2022/03/17 09:07:23;;;;;;;;;;;;;;;9.38;100.00;100026.38;5066311;28;19929;-75
2022/03/17 09:09:55;;;;;;;;;;;;;;;9.41;100.00;100031.16;5053166;28;19924;-75
2022/03/17 09:12:23;;;;;;;;;;;;;;;9.53;100.00;100044.75;5086846;28;20551;-75
2022/03/17 09:14:52;;;;;;;;;;;;;;;9.37;100.00;100047.09;5093362;28;19925;-75
2022/03/17 09:17:20;;;;;;;;;;;;;;;9.29;100.00;100051.03;5093336;28;20290;-75
2022/03/17 09:19:47;;;;;;;;;;;;;;;9.02;100.00;100054.13;5094348;28;20453;-75
2022/03/17 09:22:14;;;;;;;;;;;;;;;9.05;100.00;100061.69;5093878;28;20342;-75
2022/03/17 09:25:00;;;;;;;;;;;;;;;9.16;100.00;100058.97;5093452;28;19984;-75
2022/03/17 09:27:46;;;;;;;;;;;;;;;9.38;100.00;100071.81;5121463;27;19930;-75
2022/03/17 09:30:32;;;;;;;;;;;;;;;9.18;100.00;100079.69;5092002;28;20028;-75
2022/03/17 09:33:18;;;;;;;;;;;;;;;9.32;100.00;100078.16;5092298;28;19931;-75
2022/03/17 09:36:04;;;;;;;;;;;;;;;9.34;100.00;100089.72;5092639;28;19978;-75
2022/03/17 09:39:45;;;;;;;;;;;;;;;9.04;100.00;100087.97;5092214;28;20037;-75
2022/03/17 09:41:55;;;;;;;;;;;;;;;9.54;100.00;100104.97;5120983;27;19930;-75
2022/03/17 09:44:42;;;;;;;;;;;;;;;9.59;100.00;100090.66;5093057;28;20008;-77
2022/03/17 09:47:28;;;;;;;;;;;;;;;9.32;100.00;100100.47;5093436;28;19947;-75
2022/03/17 09:50:15;;;;;;;;;;;;;;;9.19;100.00;100114.75;5092109;28;19935;-75
2022/03/17 09:53:03;;;;;;;;;;;;;;;9.52;100.00;100122.09;5092498;28;20010;-75
2022/03/17 09:55:50;;;;;;;;;;;;;;;9.42;100.00;100122.06;5092073;28;20065;-75
2022/03/17 09:58:36;;;;;;;;;;;;;;;9.49;100.00;100122.09;5092828;28;19977;-75
2022/03/17 10:01:26;;;;;;;;;;;;;;;9.31;100.00;100130.38;5078169;28;19963;-75
2022/03/17 10:04:13;;;;;;;;;;;;;;;9.51;100.00;100122.50;5102475;28;20412;-75
2022/03/17 10:06:48;;;;;;;;;;;;;;;9.84;100.00;100125.03;5073849;28;20392;-75
2022/03/17 10:09:24;;;;;;;;;;;;;;;9.55;100.00;100131.69;5091503;28;19959;-75
2022/03/17 10:12:16;;;;;;;;;;;;;;;9.44;100.00;100117.69;5091999;28;19931;-75
2022/03/17 10:15:16;;;;;;;;;;;;;;;10.04;100.00;100106.75;5081549;28;20379;-75
2022/03/17 10:18:23;;;;;;;;;;;;;;;9.94;100.00;100122.28;5092097;28;20041;-75
2022/03/17 10:21:18;;;;;;;;;;;;;;;10.17;100.00;100114.41;5070213;28;19931;-75
2022/03/17 10:24:19;;;;;;;;;;;;;;;10.20;100.00;100112.81;5010258;28;20450;-75
2022/03/17 10:27:04;;;;;;;;;;;;;;;10.03;100.00;100116.31;5010661;28;19936;-75
2022/03/17 10:30:09;;;;;;;;;;;;;;;9.67;100.00;100125.75;5012989;28;20420;-75
2022/03/17 10:32:57;;;;;;;;;;;;;;;9.75;100.00;100130.19;4994494;28;19925;-75
2022/03/17 10:35:48;;;;;;;;;;;;;;;9.77;100.00;100134.16;4994166;28;20420;-75
2022/03/17 10:38:42;;;;;;;;;;;;;;;9.76;100.00;100154.09;4994585;28;19926;-75
2022/03/17 10:41:39;;;;;;;;;;;;;;;9.58;100.00;100148.44;4980809;28;19932;-75
2022/03/17 10:44:44;;;;;;;;;;;;;;;10.15;100.00;100152.28;4994560;28;20297;-75
2022/03/17 10:47:33;;;;;;;;;;;;;;;10.00;100.00;100153.41;4994309;28;20356;-75
2022/03/17 10:50:23;;;;;;;;;;;;;;;10.13;100.00;100146.31;5014030;28;19972;-75
2022/03/17 10:53:15;;;;;;;;;;;;;;;10.15;100.00;100155.06;4888336;29;19967;-75
2022/03/17 10:56:15;;;;;;;;;;;;;;;10.71;100.00;100160.78;4917101;29;19928;-75
2022/03/17 10:59:00;;;;;;;;;;;;;;;11.21;100.00;100159.56;4902942;29;19927;-76
2022/03/17 11:02:08;;;;;;;;;;;;;;;11.56;100.00;100159.50;4955523;28;19958;-76
2022/03/17 11:05:00;;;;;;;;;;;;;;;11.74;100.00;100162.28;4935928;29;19934;-75
2022/03/17 11:07:46;;;;;;;;;;;;;;;11.53;100.00;100156.69;4922679;29;20390;-75
2022/03/17 11:10:39;;;;;;;;;;;;;;;12.00;100.00;100162.56;4935658;29;19934;-75
2022/03/17 11:13:31;;;;;;;;;;;;;;;11.98;100.00;100167.78;4935752;29;19942;-75
2022/03/17 11:16:17;;;;;;;;;;;;;;;11.90;100.00;100169.03;4935883;29;19973;-76
2022/03/17 11:19:13;;;;;;;;;;;;;;;12.00;100.00;100159.78;4933822;29;19993;-76
2022/03/17 11:22:10;;;;;;;;;;;;;;;11.45;100.00;100169.91;4879261;29;20316;-76
2022/03/17 11:25:19;;;;;;;;;;;;;;;11.74;100.00;100165.09;4878904;29;20376;-76
2022/03/17 11:28:05;;;;;;;;;;;;;;;11.88;100.00;100160.22;4881889;29;20253;-76
2022/03/17 11:30:58;;;;;;;;;;;;;;;12.27;100.00;100172.03;4929832;29;19934;-76
2022/03/17 11:34:03;;;;;;;;;;;;;;;12.17;100.00;100170.09;4935494;29;20021;-76
2022/03/17 11:37:16;;;;;;;;;;;;;;;12.25;100.00;100177.25;4898005;29;20026;-76
2022/03/17 11:40:22;;;;;;;;;;;;;;;12.00;100.00;100176.59;4951506;28;19934;-75
2022/03/17 11:43:21;;;;;;;;;;;;;;;12.10;100.00;100170.13;4886122;29;20281;-75
2022/03/17 11:46:14;;;;;;;;;;;;;;;12.27;100.00;100174.03;4935278;29;19934;-76
2022/03/17 11:49:18;;;;;;;;;;;;;;;12.56;100.00;100167.88;4954574;29;20119;-75
2022/03/17 11:52:07;;;;;;;;;;;;;;;12.72;100.00;100165.34;4940590;29;19934;-75
2022/03/17 11:55:12;;;;;;;;;;;;;;;12.89;100.00;100165.66;4954388;29;20015;-76
2022/03/17 11:58:16;;;;;;;;;;;;;;;12.64;100.00;100161.03;4922995;29;19990;-76
2022/03/17 12:01:04;;;;;;;;;;;;;;;12.26;100.00;100166.84;4954601;29;19933;-76
2022/03/17 12:03:54;;;;;;;;;;;;;;;12.51;100.00;100173.91;4973502;28;20052;-76
2022/03/17 12:06:50;;;;;;;;;;;;;;;12.53;100.00;100163.09;4971918;28;19937;-76
2022/03/17 12:09:37;;;;;;;;;;;;;;;13.19;100.00;100163.78;4973870;28;19993;-76
2022/03/17 12:12:24;;;;;;;;;;;;;;;13.13;100.00;100164.66;4973358;28;20008;-76
2022/03/17 12:15:34;;;;;;;;;;;;;;;13.30;100.00;100158.09;4954040;29;20309;-76
2022/03/17 12:18:18;;;;;;;;;;;;;;;12.99;100.00;100157.13;4964333;28;19979;-75
2022/03/17 12:21:17;;;;;;;;;;;;;;;13.64;100.00;100167.34;4999992;28;20345;-76
2022/03/17 12:24:32;;;;;;;;;;;;;;;13.98;100.00;100176.63;5011897;28;19925;-76
2022/03/17 12:27:29;;;;;;;;;;;;;;;13.76;100.00;100175.25;5049948;28;19931;-76
2022/03/17 12:30:34;;;;;;;;;;;;;;;13.83;100.00;100175.16;5012107;28;19932;-76
2022/03/17 12:33:20;;;;;;;;;;;;;;;13.93;100.00;100160.97;4998556;28;20416;-76
2022/03/17 12:36:06;;;;;;;;;;;;;;;14.01;100.00;100150.47;5031073;28;20010;-76
2022/03/17 12:38:53;;;;;;;;;;;;;;;13.90;100.00;100166.66;5030321;28;20372;-76
2022/03/17 12:41:41;;;;;;;;;;;;;;;13.82;100.00;100165.16;5011812;28;20404;-76
2022/03/17 12:44:28;;;;;;;;;;;;;;;13.68;100.00;100174.53;4968156;28;19932;-76
2022/03/17 12:47:00;;;;;;;;;;;;;;;13.64;100.00;100168.16;4995465;28;19925;-76
2022/03/17 12:49:53;;;;;;;;;;;;;;;13.84;100.00;100154.28;4972422;28;19992;-76
2022/03/17 12:52:47;;;;;;;;;;;;;;;13.88;100.00;100160.66;4913956;29;20366;-76
2022/03/17 12:55:34;;;;;;;;;;;;;;;13.71;100.00;100156.03;4915036;29;20306;-76
2022/03/17 12:58:14;;;;;;;;;;;;;;;13.69;100.00;100161.28;4919855;29;19927;-76
2022/03/17 13:01:01;;;;;;;;;;;;;;;13.38;100.00;100159.59;4914814;29;19927;-76
2022/03/17 13:03:47;;;;;;;;;;;;;;;13.58;100.00;100146.56;4916457;29;19927;-76
2022/03/17 13:06:54;;;;;;;;;;;;;;;13.70;100.00;100146.03;4899607;29;19927;-76
2022/03/17 13:09:42;;;;;;;;;;;;;;;13.45;100.00;100151.13;4920732;29;20115;-76
2022/03/17 13:15:49;;;;;;;;;;;;;;;13.10;100.00;100155.03;4934647;29;20405;-76
2022/03/17 13:18:43;;;;;;;;;;;;;;;13.17;100.00;100151.38;4933639;29;19942;-76
2022/03/17 13:21:14;;;;;;;;;;;;;;;13.19;100.00;100160.19;4944989;29;20301;-76
2022/03/17 13:23:42;;;;;;;;;;;;;;;13.16;100.00;100163.84;4952977;29;19933;-76
2022/03/17 13:26:20;;;;;;;;;;;;;;;13.25;100.00;100162.16;4958959;28;20366;-76
2022/03/17 13:29:04;;;;;;;;;;;;;;;13.08;100.00;100165.09;4985521;28;19932;-76
2022/03/17 13:31:42;;;;;;;;;;;;;;;13.06;100.00;100156.28;5053675;28;20015;-76
2022/03/17 13:34:39;;;;;;;;;;;;;;;13.04;100.00;100155.94;5070532;28;19924;-76
2022/03/17 13:37:35;;;;;;;;;;;;;;;13.40;100.00;100160.81;5047798;28;19924;-76
2022/03/17 13:40:08;;;;;;;;;;;;;;;12.92;100.00;100154.38;5069484;28;19947;-76
2022/03/17 13:43:03;;;;;;;;;;;;;;;12.94;100.00;100162.38;5044542;28;19925;-76
2022/03/17 13:45:39;;;;;;;;;;;;;;;13.10;100.00;100166.28;5054019;28;19925;-76